sensor_id;sensor_type;location;lat;lon;timestamp;P1;durP1;ratioP1;P2;durP2;ratioP2
17858;SDS011;35426;30.698;104.050;2023-01-10T00:01:26;364.60;;;146.40;;
17858;SDS011;35426;30.698;104.050;2023-01-10T00:03:59;369.13;;;144.57;;
17858;SDS011;35426;30.698;104.050;2023-01-10T00:06:34;402.63;;;152.57;;
17858;SDS011;35426;30.698;104.050;2023-01-10T00:09:08;384.10;;;149.63;;
17858;SDS011;35426;30.698;104.050;2023-01-10T00:11:41;388.20;;;151.70;;
17858;SDS011;35426;30.698;104.050;2023-01-10T00:17:06;407.10;;;157.90;;
17858;SDS011;35426;30.698;104.050;2023-01-10T00:19:39;401.53;;;153.73;;
17858;SDS011;35426;30.698;104.050;2023-01-10T00:22:14;393.30;;;151.00;;
17858;SDS011;35426;30.698;104.050;2023-01-10T00:24:53;391.97;;;146.33;;
17858;SDS011;35426;30.698;104.050;2023-01-10T00:27:26;368.57;;;142.27;;
17858;SDS011;35426;30.698;104.050;2023-01-10T00:30:01;365.80;;;144.90;;
17858;SDS011;35426;30.698;104.050;2023-01-10T00:32:42;383.40;;;147.77;;
17858;SDS011;35426;30.698;104.050;2023-01-10T00:35:16;370.57;;;141.83;;
17858;SDS011;35426;30.698;104.050;2023-01-10T00:37:51;388.00;;;152.37;;
17858;SDS011;35426;30.698;104.050;2023-01-10T00:40:29;408.93;;;155.20;;
17858;SDS011;35426;30.698;104.050;2023-01-10T00:43:07;391.50;;;152.37;;
17858;SDS011;35426;30.698;104.050;2023-01-10T00:50:22;383.97;;;146.50;;
17858;SDS011;35426;30.698;104.050;2023-01-10T00:52:57;374.87;;;148.40;;
17858;SDS011;35426;30.698;104.050;2023-01-10T00:55:31;379.73;;;146.53;;
17858;SDS011;35426;30.698;104.050;2023-01-10T00:58:06;382.87;;;146.63;;
17858;SDS011;35426;30.698;104.050;2023-01-10T01:00:40;375.77;;;143.93;;
17858;SDS011;35426;30.698;104.050;2023-01-10T01:03:17;379.17;;;147.80;;
17858;SDS011;35426;30.698;104.050;2023-01-10T01:05:51;387.47;;;149.03;;
17858;SDS011;35426;30.698;104.050;2023-01-10T01:08:26;369.20;;;146.33;;
17858;SDS011;35426;30.698;104.050;2023-01-10T01:11:08;384.83;;;149.73;;
17858;SDS011;35426;30.698;104.050;2023-01-10T01:13:42;384.60;;;147.30;;
17858;SDS011;35426;30.698;104.050;2023-01-10T01:16:16;360.20;;;141.90;;
17858;SDS011;35426;30.698;104.050;2023-01-10T01:18:51;357.50;;;139.17;;
17858;SDS011;35426;30.698;104.050;2023-01-10T01:21:24;360.47;;;141.60;;
17858;SDS011;35426;30.698;104.050;2023-01-10T01:24:00;359.63;;;138.77;;
17858;SDS011;35426;30.698;104.050;2023-01-10T01:26:33;357.07;;;139.63;;
17858;SDS011;35426;30.698;104.050;2023-01-10T01:29:11;357.20;;;138.83;;
17858;SDS011;35426;30.698;104.050;2023-01-10T01:31:45;328.27;;;132.10;;
17858;SDS011;35426;30.698;104.050;2023-01-10T01:34:20;342.67;;;133.73;;
17858;SDS011;35426;30.698;104.050;2023-01-10T01:36:58;341.57;;;136.37;;
17858;SDS011;35426;30.698;104.050;2023-01-10T01:39:35;347.33;;;138.23;;
17858;SDS011;35426;30.698;104.050;2023-01-10T01:42:13;321.73;;;129.10;;
17858;SDS011;35426;30.698;104.050;2023-01-10T01:45:19;352.77;;;140.83;;
17858;SDS011;35426;30.698;104.050;2023-01-10T01:48:15;368.77;;;140.33;;
17858;SDS011;35426;30.698;104.050;2023-01-10T01:51:03;325.47;;;130.20;;
17858;SDS011;35426;30.698;104.050;2023-01-10T01:53:42;332.67;;;130.57;;
17858;SDS011;35426;30.698;104.050;2023-01-10T01:56:24;319.73;;;131.97;;
17858;SDS011;35426;30.698;104.050;2023-01-10T01:59:04;324.50;;;129.87;;
17858;SDS011;35426;30.698;104.050;2023-01-10T02:01:53;319.00;;;125.20;;
17858;SDS011;35426;30.698;104.050;2023-01-10T02:04:34;321.23;;;126.07;;
17858;SDS011;35426;30.698;104.050;2023-01-10T02:07:14;295.83;;;122.17;;
17858;SDS011;35426;30.698;104.050;2023-01-10T02:09:50;306.13;;;123.87;;
17858;SDS011;35426;30.698;104.050;2023-01-10T02:12:31;304.07;;;122.57;;
17858;SDS011;35426;30.698;104.050;2023-01-10T02:15:07;318.93;;;123.67;;
17858;SDS011;35426;30.698;104.050;2023-01-10T02:17:46;321.90;;;124.43;;
17858;SDS011;35426;30.698;104.050;2023-01-10T02:20:24;316.73;;;120.43;;
17858;SDS011;35426;30.698;104.050;2023-01-10T02:23:11;296.37;;;118.60;;
17858;SDS011;35426;30.698;104.050;2023-01-10T02:26:15;310.37;;;120.43;;
17858;SDS011;35426;30.698;104.050;2023-01-10T02:32:29;286.70;;;114.23;;
17858;SDS011;35426;30.698;104.050;2023-01-10T02:35:42;277.87;;;113.80;;
17858;SDS011;35426;30.698;104.050;2023-01-10T02:38:29;277.47;;;112.73;;
17858;SDS011;35426;30.698;104.050;2023-01-10T02:41:12;296.70;;;116.80;;
17858;SDS011;35426;30.698;104.050;2023-01-10T02:44:01;284.77;;;116.60;;
17858;SDS011;35426;30.698;104.050;2023-01-10T02:46:40;292.80;;;116.83;;
17858;SDS011;35426;30.698;104.050;2023-01-10T02:49:19;290.73;;;114.07;;
17858;SDS011;35426;30.698;104.050;2023-01-10T02:51:55;291.33;;;116.37;;
17858;SDS011;35426;30.698;104.050;2023-01-10T02:54:36;285.00;;;115.87;;
17858;SDS011;35426;30.698;104.050;2023-01-10T02:57:26;273.93;;;113.97;;
17858;SDS011;35426;30.698;104.050;2023-01-10T03:00:31;274.47;;;115.57;;
17858;SDS011;35426;30.698;104.050;2023-01-10T03:03:19;277.10;;;113.40;;
17858;SDS011;35426;30.698;104.050;2023-01-10T03:06:13;278.07;;;114.80;;
17858;SDS011;35426;30.698;104.050;2023-01-10T03:08:58;276.97;;;113.10;;
17858;SDS011;35426;30.698;104.050;2023-01-10T03:11:37;286.73;;;114.73;;
17858;SDS011;35426;30.698;104.050;2023-01-10T03:14:15;279.53;;;114.20;;
17858;SDS011;35426;30.698;104.050;2023-01-10T03:16:55;270.00;;;112.03;;
17858;SDS011;35426;30.698;104.050;2023-01-10T03:19:36;278.27;;;113.90;;
17858;SDS011;35426;30.698;104.050;2023-01-10T03:22:17;285.50;;;114.40;;
17858;SDS011;35426;30.698;104.050;2023-01-10T03:24:52;274.70;;;111.63;;
17858;SDS011;35426;30.698;104.050;2023-01-10T03:27:33;267.17;;;110.90;;
17858;SDS011;35426;30.698;104.050;2023-01-10T03:30:17;281.63;;;114.40;;
17858;SDS011;35426;30.698;104.050;2023-01-10T03:32:57;271.87;;;111.37;;
17858;SDS011;35426;30.698;104.050;2023-01-10T03:35:33;261.67;;;110.37;;
17858;SDS011;35426;30.698;104.050;2023-01-10T03:38:25;288.67;;;110.67;;
17858;SDS011;35426;30.698;104.050;2023-01-10T03:41:06;265.63;;;109.97;;
17858;SDS011;35426;30.698;104.050;2023-01-10T03:43:46;280.57;;;112.23;;
17858;SDS011;35426;30.698;104.050;2023-01-10T03:46:38;264.30;;;109.57;;
17858;SDS011;35426;30.698;104.050;2023-01-10T03:49:19;270.37;;;109.93;;
17858;SDS011;35426;30.698;104.050;2023-01-10T03:51:59;272.33;;;111.20;;
17858;SDS011;35426;30.698;104.050;2023-01-10T03:54:37;268.23;;;110.40;;
17858;SDS011;35426;30.698;104.050;2023-01-10T03:57:16;260.57;;;108.03;;
17858;SDS011;35426;30.698;104.050;2023-01-10T03:59:52;262.80;;;110.00;;
17858;SDS011;35426;30.698;104.050;2023-01-10T04:02:31;260.17;;;108.43;;
17858;SDS011;35426;30.698;104.050;2023-01-10T04:05:07;273.57;;;110.80;;
17858;SDS011;35426;30.698;104.050;2023-01-10T04:07:44;265.47;;;110.10;;
17858;SDS011;35426;30.698;104.050;2023-01-10T04:10:23;258.27;;;109.83;;
17858;SDS011;35426;30.698;104.050;2023-01-10T04:12:59;262.63;;;108.47;;
17858;SDS011;35426;30.698;104.050;2023-01-10T04:15:35;281.17;;;109.23;;
17858;SDS011;35426;30.698;104.050;2023-01-10T04:18:10;263.27;;;105.10;;
17858;SDS011;35426;30.698;104.050;2023-01-10T04:20:46;261.27;;;106.73;;
17858;SDS011;35426;30.698;104.050;2023-01-10T04:23:22;256.00;;;104.40;;
17858;SDS011;35426;30.698;104.050;2023-01-10T04:26:03;257.57;;;108.70;;
17858;SDS011;35426;30.698;104.050;2023-01-10T04:28:43;264.97;;;109.43;;
17858;SDS011;35426;30.698;104.050;2023-01-10T04:31:19;266.00;;;105.83;;
17858;SDS011;35426;30.698;104.050;2023-01-10T04:34:21;267.43;;;107.43;;
17858;SDS011;35426;30.698;104.050;2023-01-10T04:37:02;260.57;;;107.40;;
17858;SDS011;35426;30.698;104.050;2023-01-10T04:39:46;265.83;;;105.90;;
17858;SDS011;35426;30.698;104.050;2023-01-10T04:42:25;268.37;;;108.57;;
17858;SDS011;35426;30.698;104.050;2023-01-10T04:45:07;259.43;;;106.00;;
17858;SDS011;35426;30.698;104.050;2023-01-10T04:47:48;255.30;;;105.70;;
17858;SDS011;35426;30.698;104.050;2023-01-10T04:50:26;261.77;;;105.67;;
17858;SDS011;35426;30.698;104.050;2023-01-10T04:53:05;252.77;;;105.53;;
17858;SDS011;35426;30.698;104.050;2023-01-10T04:55:45;266.07;;;106.23;;
17858;SDS011;35426;30.698;104.050;2023-01-10T04:58:23;254.67;;;104.77;;
17858;SDS011;35426;30.698;104.050;2023-01-10T05:01:05;257.33;;;105.77;;
17858;SDS011;35426;30.698;104.050;2023-01-10T05:03:46;248.47;;;104.37;;
17858;SDS011;35426;30.698;104.050;2023-01-10T05:06:29;264.53;;;108.07;;
17858;SDS011;35426;30.698;104.050;2023-01-10T05:09:07;266.73;;;106.80;;
17858;SDS011;35426;30.698;104.050;2023-01-10T05:11:44;273.53;;;106.93;;
17858;SDS011;35426;30.698;104.050;2023-01-10T05:14:24;272.50;;;106.03;;
17858;SDS011;35426;30.698;104.050;2023-01-10T05:17:00;258.97;;;108.33;;
17858;SDS011;35426;30.698;104.050;2023-01-10T05:19:37;267.90;;;109.00;;
17858;SDS011;35426;30.698;104.050;2023-01-10T05:22:13;273.07;;;109.67;;
17858;SDS011;35426;30.698;104.050;2023-01-10T05:24:50;267.97;;;107.73;;
17858;SDS011;35426;30.698;104.050;2023-01-10T05:27:26;257.27;;;107.20;;
17858;SDS011;35426;30.698;104.050;2023-01-10T05:30:05;259.87;;;106.87;;
17858;SDS011;35426;30.698;104.050;2023-01-10T05:32:42;257.37;;;108.43;;
17858;SDS011;35426;30.698;104.050;2023-01-10T05:35:18;259.40;;;104.60;;
17858;SDS011;35426;30.698;104.050;2023-01-10T05:37:55;271.03;;;105.57;;
17858;SDS011;35426;30.698;104.050;2023-01-10T05:40:30;268.57;;;108.87;;
17858;SDS011;35426;30.698;104.050;2023-01-10T05:43:07;274.40;;;109.87;;
17858;SDS011;35426;30.698;104.050;2023-01-10T05:45:45;252.63;;;108.90;;
17858;SDS011;35426;30.698;104.050;2023-01-10T05:48:21;276.50;;;113.17;;
17858;SDS011;35426;30.698;104.050;2023-01-10T05:50:58;274.37;;;112.90;;
17858;SDS011;35426;30.698;104.050;2023-01-10T05:53:33;268.43;;;112.93;;
17858;SDS011;35426;30.698;104.050;2023-01-10T05:56:09;263.50;;;109.97;;
17858;SDS011;35426;30.698;104.050;2023-01-10T05:58:47;272.73;;;111.87;;
17858;SDS011;35426;30.698;104.050;2023-01-10T06:01:37;265.97;;;112.10;;
17858;SDS011;35426;30.698;104.050;2023-01-10T06:04:12;273.83;;;113.70;;
17858;SDS011;35426;30.698;104.050;2023-01-10T06:06:48;285.00;;;114.47;;
17858;SDS011;35426;30.698;104.050;2023-01-10T06:09:25;288.30;;;114.20;;
17858;SDS011;35426;30.698;104.050;2023-01-10T06:12:01;284.03;;;114.07;;
17858;SDS011;35426;30.698;104.050;2023-01-10T06:14:37;276.50;;;113.73;;
17858;SDS011;35426;30.698;104.050;2023-01-10T06:17:21;276.10;;;114.67;;
17858;SDS011;35426;30.698;104.050;2023-01-10T06:19:57;278.30;;;114.70;;
17858;SDS011;35426;30.698;104.050;2023-01-10T06:22:33;275.97;;;114.50;;
17858;SDS011;35426;30.698;104.050;2023-01-10T06:25:08;275.97;;;112.23;;
17858;SDS011;35426;30.698;104.050;2023-01-10T06:27:48;273.30;;;111.73;;
17858;SDS011;35426;30.698;104.050;2023-01-10T06:30:24;285.07;;;113.37;;
17858;SDS011;35426;30.698;104.050;2023-01-10T06:33:02;276.80;;;112.60;;
17858;SDS011;35426;30.698;104.050;2023-01-10T06:35:43;282.57;;;112.13;;
17858;SDS011;35426;30.698;104.050;2023-01-10T06:38:20;279.67;;;114.17;;
17858;SDS011;35426;30.698;104.050;2023-01-10T06:41:00;276.83;;;115.07;;
17858;SDS011;35426;30.698;104.050;2023-01-10T06:43:44;286.67;;;117.93;;
17858;SDS011;35426;30.698;104.050;2023-01-10T06:46:22;290.37;;;115.57;;
17858;SDS011;35426;30.698;104.050;2023-01-10T06:49:00;289.77;;;116.37;;
17858;SDS011;35426;30.698;104.050;2023-01-10T06:51:37;292.53;;;120.17;;
17858;SDS011;35426;30.698;104.050;2023-01-10T06:54:16;285.97;;;116.00;;
17858;SDS011;35426;30.698;104.050;2023-01-10T06:56:53;284.60;;;116.73;;
17858;SDS011;35426;30.698;104.050;2023-01-10T06:59:28;290.20;;;117.47;;
17858;SDS011;35426;30.698;104.050;2023-01-10T07:02:07;276.43;;;115.43;;
17858;SDS011;35426;30.698;104.050;2023-01-10T07:04:53;281.97;;;115.20;;
17858;SDS011;35426;30.698;104.050;2023-01-10T07:07:30;283.50;;;115.33;;
17858;SDS011;35426;30.698;104.050;2023-01-10T07:10:06;294.63;;;118.50;;
17858;SDS011;35426;30.698;104.050;2023-01-10T07:12:42;291.33;;;116.80;;
17858;SDS011;35426;30.698;104.050;2023-01-10T07:15:18;283.40;;;116.93;;
17858;SDS011;35426;30.698;104.050;2023-01-10T07:17:55;286.47;;;116.40;;
17858;SDS011;35426;30.698;104.050;2023-01-10T07:20:34;290.40;;;119.23;;
17858;SDS011;35426;30.698;104.050;2023-01-10T07:23:11;293.87;;;116.30;;
17858;SDS011;35426;30.698;104.050;2023-01-10T07:25:48;268.97;;;116.70;;
17858;SDS011;35426;30.698;104.050;2023-01-10T07:28:27;282.33;;;116.63;;
17858;SDS011;35426;30.698;104.050;2023-01-10T07:31:04;280.93;;;115.70;;
17858;SDS011;35426;30.698;104.050;2023-01-10T07:33:40;275.23;;;113.10;;
17858;SDS011;35426;30.698;104.050;2023-01-10T07:36:19;275.63;;;116.30;;
17858;SDS011;35426;30.698;104.050;2023-01-10T07:38:55;283.13;;;115.97;;
17858;SDS011;35426;30.698;104.050;2023-01-10T07:41:31;285.67;;;114.80;;
17858;SDS011;35426;30.698;104.050;2023-01-10T07:44:07;282.37;;;115.10;;
17858;SDS011;35426;30.698;104.050;2023-01-10T07:46:43;280.70;;;115.07;;
17858;SDS011;35426;30.698;104.050;2023-01-10T07:49:19;278.63;;;115.27;;
17858;SDS011;35426;30.698;104.050;2023-01-10T07:52:06;278.83;;;112.80;;
17858;SDS011;35426;30.698;104.050;2023-01-10T07:54:42;286.97;;;114.07;;
17858;SDS011;35426;30.698;104.050;2023-01-10T07:57:22;267.73;;;111.37;;
17858;SDS011;35426;30.698;104.050;2023-01-10T07:59:58;288.20;;;114.50;;
17858;SDS011;35426;30.698;104.050;2023-01-10T08:02:39;277.43;;;112.80;;
17858;SDS011;35426;30.698;104.050;2023-01-10T08:05:14;273.30;;;112.87;;
17858;SDS011;35426;30.698;104.050;2023-01-10T08:07:53;271.63;;;111.23;;
17858;SDS011;35426;30.698;104.050;2023-01-10T08:10:29;275.03;;;111.83;;
17858;SDS011;35426;30.698;104.050;2023-01-10T08:13:10;279.20;;;113.87;;
17858;SDS011;35426;30.698;104.050;2023-01-10T08:15:46;282.57;;;113.83;;
17858;SDS011;35426;30.698;104.050;2023-01-10T08:18:32;290.00;;;115.80;;
17858;SDS011;35426;30.698;104.050;2023-01-10T08:21:09;291.73;;;115.60;;
17858;SDS011;35426;30.698;104.050;2023-01-10T08:23:49;277.93;;;111.77;;
17858;SDS011;35426;30.698;104.050;2023-01-10T08:26:25;292.47;;;117.20;;
17858;SDS011;35426;30.698;104.050;2023-01-10T08:29:01;269.60;;;112.80;;
17858;SDS011;35426;30.698;104.050;2023-01-10T08:31:36;284.27;;;114.80;;
17858;SDS011;35426;30.698;104.050;2023-01-10T08:34:13;288.33;;;115.60;;
17858;SDS011;35426;30.698;104.050;2023-01-10T08:36:49;283.90;;;115.03;;
17858;SDS011;35426;30.698;104.050;2023-01-10T08:39:59;287.60;;;114.97;;
17858;SDS011;35426;30.698;104.050;2023-01-10T08:42:36;281.70;;;113.40;;
17858;SDS011;35426;30.698;104.050;2023-01-10T08:45:15;283.77;;;113.37;;
17858;SDS011;35426;30.698;104.050;2023-01-10T08:47:50;273.17;;;112.30;;
17858;SDS011;35426;30.698;104.050;2023-01-10T08:50:27;286.63;;;115.20;;
17858;SDS011;35426;30.698;104.050;2023-01-10T08:53:02;286.33;;;113.13;;
17858;SDS011;35426;30.698;104.050;2023-01-10T08:55:43;289.47;;;115.27;;
17858;SDS011;35426;30.698;104.050;2023-01-10T08:58:21;283.93;;;112.93;;
17858;SDS011;35426;30.698;104.050;2023-01-10T09:01:20;281.33;;;114.30;;
17858;SDS011;35426;30.698;104.050;2023-01-10T09:04:20;280.57;;;114.03;;
17858;SDS011;35426;30.698;104.050;2023-01-10T09:07:01;292.13;;;116.27;;
17858;SDS011;35426;30.698;104.050;2023-01-10T09:09:35;277.13;;;112.57;;
17858;SDS011;35426;30.698;104.050;2023-01-10T09:12:16;275.33;;;111.10;;
17858;SDS011;35426;30.698;104.050;2023-01-10T09:15:07;283.83;;;115.07;;
17858;SDS011;35426;30.698;104.050;2023-01-10T09:17:42;286.10;;;117.60;;
17858;SDS011;35426;30.698;104.050;2023-01-10T09:20:18;280.43;;;114.63;;
17858;SDS011;35426;30.698;104.050;2023-01-10T09:26:20;289.97;;;113.03;;
17858;SDS011;35426;30.698;104.050;2023-01-10T09:29:07;282.83;;;113.27;;
17858;SDS011;35426;30.698;104.050;2023-01-10T09:31:41;288.47;;;115.27;;
17858;SDS011;35426;30.698;104.050;2023-01-10T09:34:15;282.33;;;112.40;;
17858;SDS011;35426;30.698;104.050;2023-01-10T09:36:50;283.20;;;112.93;;
17858;SDS011;35426;30.698;104.050;2023-01-10T09:39:26;286.13;;;114.53;;
17858;SDS011;35426;30.698;104.050;2023-01-10T09:42:04;298.43;;;110.73;;
17858;SDS011;35426;30.698;104.050;2023-01-10T09:44:58;270.50;;;109.00;;
17858;SDS011;35426;30.698;104.050;2023-01-10T09:47:46;283.40;;;108.87;;
17858;SDS011;35426;30.698;104.050;2023-01-10T09:50:28;277.63;;;111.30;;
17858;SDS011;35426;30.698;104.050;2023-01-10T09:53:12;277.30;;;108.30;;
17858;SDS011;35426;30.698;104.050;2023-01-10T09:55:51;279.70;;;110.50;;
17858;SDS011;35426;30.698;104.050;2023-01-10T09:58:29;273.83;;;110.03;;
17858;SDS011;35426;30.698;104.050;2023-01-10T10:01:08;279.60;;;111.47;;
17858;SDS011;35426;30.698;104.050;2023-01-10T10:03:50;278.60;;;110.80;;
17858;SDS011;35426;30.698;104.050;2023-01-10T10:06:30;278.33;;;108.10;;
17858;SDS011;35426;30.698;104.050;2023-01-10T10:09:07;293.30;;;111.63;;
17858;SDS011;35426;30.698;104.050;2023-01-10T10:11:57;273.67;;;108.60;;
17858;SDS011;35426;30.698;104.050;2023-01-10T10:14:51;270.97;;;109.63;;
17858;SDS011;35426;30.698;104.050;2023-01-10T10:17:43;272.80;;;108.63;;
17858;SDS011;35426;30.698;104.050;2023-01-10T10:20:33;268.43;;;108.80;;
17858;SDS011;35426;30.698;104.050;2023-01-10T10:23:24;292.70;;;114.73;;
17858;SDS011;35426;30.698;104.050;2023-01-10T10:26:21;279.77;;;111.53;;
17858;SDS011;35426;30.698;104.050;2023-01-10T10:29:03;272.80;;;108.50;;
17858;SDS011;35426;30.698;104.050;2023-01-10T10:32:00;282.63;;;108.83;;
17858;SDS011;35426;30.698;104.050;2023-01-10T10:34:59;286.37;;;108.77;;
17858;SDS011;35426;30.698;104.050;2023-01-10T10:37:41;289.37;;;111.50;;
17858;SDS011;35426;30.698;104.050;2023-01-10T10:40:20;285.17;;;109.33;;
17858;SDS011;35426;30.698;104.050;2023-01-10T10:43:00;283.53;;;110.23;;
17858;SDS011;35426;30.698;104.050;2023-01-10T10:45:45;275.73;;;109.07;;
17858;SDS011;35426;30.698;104.050;2023-01-10T10:48:26;280.73;;;108.83;;
17858;SDS011;35426;30.698;104.050;2023-01-10T10:51:06;276.00;;;108.80;;
17858;SDS011;35426;30.698;104.050;2023-01-10T10:53:48;273.70;;;106.40;;
17858;SDS011;35426;30.698;104.050;2023-01-10T10:56:24;272.00;;;108.77;;
17858;SDS011;35426;30.698;104.050;2023-01-10T10:59:02;285.37;;;109.87;;
17858;SDS011;35426;30.698;104.050;2023-01-10T11:01:39;285.07;;;109.83;;
17858;SDS011;35426;30.698;104.050;2023-01-10T11:04:17;275.70;;;108.80;;
17858;SDS011;35426;30.698;104.050;2023-01-10T11:06:58;282.03;;;108.33;;
17858;SDS011;35426;30.698;104.050;2023-01-10T11:09:40;263.83;;;107.30;;
17858;SDS011;35426;30.698;104.050;2023-01-10T11:12:18;273.20;;;109.87;;
17858;SDS011;35426;30.698;104.050;2023-01-10T11:15:07;283.33;;;108.93;;
17858;SDS011;35426;30.698;104.050;2023-01-10T11:17:45;275.70;;;110.40;;
17858;SDS011;35426;30.698;104.050;2023-01-10T11:20:45;284.77;;;108.37;;
17858;SDS011;35426;30.698;104.050;2023-01-10T11:23:30;275.97;;;111.17;;
17858;SDS011;35426;30.698;104.050;2023-01-10T11:26:21;268.50;;;107.23;;
17858;SDS011;35426;30.698;104.050;2023-01-10T11:29:03;293.00;;;114.93;;
17858;SDS011;35426;30.698;104.050;2023-01-10T11:31:43;288.27;;;115.83;;
17858;SDS011;35426;30.698;104.050;2023-01-10T11:34:22;282.63;;;113.27;;
17858;SDS011;35426;30.698;104.050;2023-01-10T11:37:02;280.73;;;113.47;;
17858;SDS011;35426;30.698;104.050;2023-01-10T11:42:54;284.20;;;110.87;;
17858;SDS011;35426;30.698;104.050;2023-01-10T11:45:31;283.07;;;110.13;;
17858;SDS011;35426;30.698;104.050;2023-01-10T11:48:19;277.97;;;110.37;;
17858;SDS011;35426;30.698;104.050;2023-01-10T11:51:18;279.87;;;110.77;;
17858;SDS011;35426;30.698;104.050;2023-01-10T11:53:59;279.17;;;110.70;;
17858;SDS011;35426;30.698;104.050;2023-01-10T11:56:42;286.07;;;109.63;;
17858;SDS011;35426;30.698;104.050;2023-01-10T11:59:27;280.90;;;109.53;;
17858;SDS011;35426;30.698;104.050;2023-01-10T12:02:09;288.67;;;112.53;;
17858;SDS011;35426;30.698;104.050;2023-01-10T12:04:53;294.60;;;110.30;;
17858;SDS011;35426;30.698;104.050;2023-01-10T12:07:55;283.67;;;113.03;;
17858;SDS011;35426;30.698;104.050;2023-01-10T12:10:37;281.60;;;111.40;;
17858;SDS011;35426;30.698;104.050;2023-01-10T12:13:15;293.17;;;112.80;;
17858;SDS011;35426;30.698;104.050;2023-01-10T12:15:54;292.03;;;112.87;;
17858;SDS011;35426;30.698;104.050;2023-01-10T12:18:53;284.87;;;112.80;;
17858;SDS011;35426;30.698;104.050;2023-01-10T12:21:33;281.10;;;109.00;;
17858;SDS011;35426;30.698;104.050;2023-01-10T12:24:13;272.80;;;107.97;;
17858;SDS011;35426;30.698;104.050;2023-01-10T12:26:54;281.37;;;108.87;;
17858;SDS011;35426;30.698;104.050;2023-01-10T12:29:36;277.83;;;108.13;;
17858;SDS011;35426;30.698;104.050;2023-01-10T12:32:18;294.80;;;110.83;;
17858;SDS011;35426;30.698;104.050;2023-01-10T12:34:59;280.70;;;108.23;;
17858;SDS011;35426;30.698;104.050;2023-01-10T12:37:44;282.67;;;109.73;;
17858;SDS011;35426;30.698;104.050;2023-01-10T12:40:27;287.17;;;108.23;;
17858;SDS011;35426;30.698;104.050;2023-01-10T12:43:12;277.73;;;110.00;;
17858;SDS011;35426;30.698;104.050;2023-01-10T12:46:21;275.30;;;106.77;;
17858;SDS011;35426;30.698;104.050;2023-01-10T12:49:22;293.23;;;114.63;;
17858;SDS011;35426;30.698;104.050;2023-01-10T12:52:04;280.80;;;109.93;;
17858;SDS011;35426;30.698;104.050;2023-01-10T12:54:48;289.87;;;112.47;;
17858;SDS011;35426;30.698;104.050;2023-01-10T12:57:26;289.77;;;108.97;;
17858;SDS011;35426;30.698;104.050;2023-01-10T13:00:09;275.00;;;107.00;;
17858;SDS011;35426;30.698;104.050;2023-01-10T13:02:56;283.87;;;111.40;;
17858;SDS011;35426;30.698;104.050;2023-01-10T13:05:35;274.23;;;109.20;;
17858;SDS011;35426;30.698;104.050;2023-01-10T13:08:11;277.17;;;108.07;;
17858;SDS011;35426;30.698;104.050;2023-01-10T13:10:49;281.50;;;108.00;;
17858;SDS011;35426;30.698;104.050;2023-01-10T13:13:32;275.33;;;109.13;;
17858;SDS011;35426;30.698;104.050;2023-01-10T13:16:21;275.87;;;109.17;;
17858;SDS011;35426;30.698;104.050;2023-01-10T13:19:21;271.20;;;109.37;;
17858;SDS011;35426;30.698;104.050;2023-01-10T13:25:17;291.87;;;110.30;;
17858;SDS011;35426;30.698;104.050;2023-01-10T13:28:02;263.63;;;107.43;;
17858;SDS011;35426;30.698;104.050;2023-01-10T13:30:40;285.73;;;113.20;;
17858;SDS011;35426;30.698;104.050;2023-01-10T13:33:18;283.23;;;110.23;;
17858;SDS011;35426;30.698;104.050;2023-01-10T13:36:07;295.80;;;114.30;;
17858;SDS011;35426;30.698;104.050;2023-01-10T13:38:47;287.93;;;112.63;;
17858;SDS011;35426;30.698;104.050;2023-01-10T13:41:25;302.80;;;115.97;;
17858;SDS011;35426;30.698;104.050;2023-01-10T13:47:59;297.83;;;115.47;;
17858;SDS011;35426;30.698;104.050;2023-01-10T13:53:53;302.00;;;116.60;;
17858;SDS011;35426;30.698;104.050;2023-01-10T13:56:36;306.27;;;118.77;;
17858;SDS011;35426;30.698;104.050;2023-01-10T13:59:58;302.30;;;118.13;;
17858;SDS011;35426;30.698;104.050;2023-01-10T14:02:41;305.40;;;119.67;;
17858;SDS011;35426;30.698;104.050;2023-01-10T14:05:27;314.17;;;121.30;;
17858;SDS011;35426;30.698;104.050;2023-01-10T14:08:27;324.83;;;124.07;;
17858;SDS011;35426;30.698;104.050;2023-01-10T14:11:10;321.60;;;124.33;;
17858;SDS011;35426;30.698;104.050;2023-01-10T14:13:50;325.83;;;125.10;;
17858;SDS011;35426;30.698;104.050;2023-01-10T14:16:38;345.00;;;129.97;;
17858;SDS011;35426;30.698;104.050;2023-01-10T14:19:22;344.13;;;129.87;;
17858;SDS011;35426;30.698;104.050;2023-01-10T14:22:02;337.17;;;129.23;;
17858;SDS011;35426;30.698;104.050;2023-01-10T14:24:42;351.27;;;131.53;;
17858;SDS011;35426;30.698;104.050;2023-01-10T14:27:29;367.57;;;136.20;;
17858;SDS011;35426;30.698;104.050;2023-01-10T14:30:20;362.27;;;133.93;;
17858;SDS011;35426;30.698;104.050;2023-01-10T14:33:26;371.60;;;138.40;;
17858;SDS011;35426;30.698;104.050;2023-01-10T14:36:29;352.47;;;136.20;;
17858;SDS011;35426;30.698;104.050;2023-01-10T14:39:20;381.60;;;145.63;;
17858;SDS011;35426;30.698;104.050;2023-01-10T14:42:00;387.30;;;144.00;;
17858;SDS011;35426;30.698;104.050;2023-01-10T14:44:43;390.30;;;146.97;;
17858;SDS011;35426;30.698;104.050;2023-01-10T14:47:31;396.97;;;147.63;;
17858;SDS011;35426;30.698;104.050;2023-01-10T14:50:21;420.70;;;155.77;;
17858;SDS011;35426;30.698;104.050;2023-01-10T14:53:04;412.47;;;156.63;;
17858;SDS011;35426;30.698;104.050;2023-01-10T14:59:26;426.57;;;160.33;;
17858;SDS011;35426;30.698;104.050;2023-01-10T15:02:09;421.90;;;156.20;;
17858;SDS011;35426;30.698;104.050;2023-01-10T15:04:56;420.20;;;160.70;;
17858;SDS011;35426;30.698;104.050;2023-01-10T15:07:40;425.90;;;163.03;;
17858;SDS011;35426;30.698;104.050;2023-01-10T15:10:39;434.93;;;164.30;;
17858;SDS011;35426;30.698;104.050;2023-01-10T15:13:20;445.53;;;168.97;;
17858;SDS011;35426;30.698;104.050;2023-01-10T15:19:12;454.57;;;173.47;;
17858;SDS011;35426;30.698;104.050;2023-01-10T15:21:50;447.87;;;171.30;;
17858;SDS011;35426;30.698;104.050;2023-01-10T15:24:30;456.53;;;174.73;;
17858;SDS011;35426;30.698;104.050;2023-01-10T15:27:11;443.13;;;174.43;;